createdAt,value
2023-04-09T00:00:12.155Z,53.04
2023-04-09T00:02:38.974Z,53.24
2023-04-09T00:05:06.428Z,53.89
2023-04-09T00:07:32.994Z,53.99
2023-04-09T00:09:59.558Z,53.88
2023-04-09T00:12:26.376Z,54.78
2023-04-09T00:14:52.986Z,53.79
2023-04-09T00:17:19.562Z,54.61
2023-04-09T00:19:46.426Z,54.41
2023-04-09T00:22:13.036Z,54.94
2023-04-09T00:24:39.634Z,54.47
2023-04-09T00:27:06.173Z,54.68
2023-04-09T00:29:32.732Z,55.16
2023-04-09T00:31:59.345Z,54.96
2023-04-09T00:34:26.204Z,54.96
2023-04-09T00:36:52.708Z,55.03
2023-04-09T00:39:19.299Z,54.72
2023-04-09T00:41:45.853Z,55.15
2023-04-09T00:44:12.483Z,54.73
2023-04-09T00:46:39.685Z,54.62
2023-04-09T00:49:06.636Z,54.78
2023-04-09T00:51:33.565Z,54.65
2023-04-09T00:54:00.162Z,55.00
2023-04-09T00:56:27.260Z,55.01
2023-04-09T00:58:54.336Z,54.94
2023-04-09T01:01:21.028Z,55.10
2023-04-09T01:03:47.874Z,54.96
2023-04-09T01:06:14.567Z,57.12
2023-04-09T01:08:43.962Z,55.69
2023-04-09T01:11:24.372Z,55.41
2023-04-09T01:13:56.704Z,54.95
2023-04-09T01:16:24.307Z,54.89
2023-04-09T01:18:53.442Z,55.17
2023-04-09T01:21:22.215Z,56.02
2023-04-09T01:23:59.995Z,55.75
2023-04-09T01:26:35.832Z,55.77
2023-04-09T01:29:02.767Z,55.86
2023-04-09T01:31:34.283Z,55.24
2023-04-09T01:34:01.215Z,55.79
2023-04-09T01:36:29.400Z,55.47
2023-04-09T01:38:56.408Z,55.32
2023-04-09T01:41:23.766Z,55.51
2023-04-09T01:43:51.315Z,55.25
2023-04-09T01:46:18.360Z,55.88
2023-04-09T01:48:45.642Z,55.48
2023-04-09T01:51:14.238Z,55.38
2023-04-09T01:53:41.278Z,55.63
2023-04-09T01:56:08.557Z,55.95
2023-04-09T01:58:35.947Z,56.01
2023-04-09T02:01:05.927Z,56.28
2023-04-09T02:03:45.280Z,56.99
2023-04-09T02:06:17.202Z,58.39
2023-04-09T02:08:45.478Z,56.56
2023-04-09T02:11:12.488Z,56.28
2023-04-09T02:13:40.778Z,56.10
2023-04-09T02:16:28.042Z,56.06
2023-04-09T02:18:55.969Z,56.08
2023-04-09T02:21:23.119Z,56.89
2023-04-09T02:23:50.335Z,59.40
2023-04-09T02:26:16.830Z,57.05
2023-04-09T02:28:43.367Z,58.43
2023-04-09T02:31:10.258Z,56.33
2023-04-09T02:33:36.962Z,56.66
2023-04-09T02:36:03.669Z,56.31
2023-04-09T02:38:30.518Z,56.10
2023-04-09T02:40:57.050Z,56.27
2023-04-09T02:43:23.704Z,56.26
2023-04-09T02:45:50.672Z,56.59
2023-04-09T02:48:17.215Z,59.92
2023-04-09T02:50:43.780Z,57.73
2023-04-09T02:53:10.521Z,56.74
2023-04-09T02:55:37.161Z,57.26
2023-04-09T02:58:03.738Z,56.49
2023-04-09T03:00:30.296Z,57.17
2023-04-09T03:02:58.026Z,56.77
2023-04-09T03:05:24.813Z,56.94
2023-04-09T03:07:51.539Z,57.01
2023-04-09T03:10:18.142Z,58.48
2023-04-09T03:12:44.737Z,57.27
2023-04-09T03:15:11.308Z,57.10
2023-04-09T03:17:37.878Z,57.55
2023-04-09T03:20:04.834Z,56.96
2023-04-09T03:22:35.676Z,57.59
2023-04-09T03:25:02.184Z,57.59
2023-04-09T03:27:28.758Z,57.62
2023-04-09T03:29:58.014Z,56.99
2023-04-09T03:32:24.638Z,57.33
2023-04-09T03:34:51.195Z,57.25
2023-04-09T03:37:17.799Z,62.51
2023-04-09T03:39:44.327Z,58.94
2023-04-09T03:42:11.014Z,58.21
2023-04-09T03:44:37.573Z,61.51
2023-04-09T03:47:04.084Z,57.92
2023-04-09T03:49:30.627Z,58.66
2023-04-09T03:51:57.202Z,58.49
2023-04-09T03:54:23.828Z,58.81
2023-04-09T03:56:50.675Z,58.10
2023-04-09T03:59:17.224Z,58.41
2023-04-09T04:01:44.014Z,58.71
2023-04-09T04:04:10.836Z,58.48
2023-04-09T04:06:37.474Z,58.71
2023-04-09T04:09:04.102Z,59.04
2023-04-09T04:11:30.746Z,59.03
2023-04-09T04:13:57.308Z,58.84
2023-04-09T04:16:23.974Z,58.86
2023-04-09T04:18:51.136Z,58.96
2023-04-09T04:21:18.129Z,59.51
2023-04-09T04:23:44.656Z,59.07
2023-04-09T04:26:11.539Z,58.92
2023-04-09T04:28:38.709Z,59.39
2023-04-09T04:31:09.182Z,59.65
2023-04-09T04:33:35.827Z,61.03
2023-04-09T04:36:06.845Z,60.08
2023-04-09T04:38:34.124Z,60.18
2023-04-09T04:41:00.757Z,60.54
2023-04-09T04:43:27.457Z,59.88
2023-04-09T04:45:54.396Z,59.99
2023-04-09T04:48:21.635Z,59.83
2023-04-09T04:50:54.619Z,61.16
2023-04-09T04:53:21.190Z,61.49
2023-04-09T04:55:47.726Z,59.49
2023-04-09T04:58:14.326Z,60.30
2023-04-09T05:00:40.928Z,60.01
2023-04-09T05:03:07.601Z,60.30
2023-04-09T05:05:34.222Z,60.39
2023-04-09T05:08:00.850Z,62.07
2023-04-09T05:10:27.399Z,62.87
2023-04-09T05:12:53.979Z,61.90
2023-04-09T05:15:20.741Z,63.44
2023-04-09T05:17:47.392Z,61.69
2023-04-09T05:20:14.055Z,60.19
2023-04-09T05:22:40.766Z,59.75
2023-04-09T05:25:08.031Z,59.46
2023-04-09T05:27:34.591Z,59.43
2023-04-09T05:30:01.321Z,60.89
2023-04-09T05:32:27.883Z,60.82
2023-04-09T05:34:54.510Z,59.02
2023-04-09T05:37:21.094Z,60.66
2023-04-09T05:39:47.623Z,59.39
2023-04-09T05:42:14.177Z,60.05
2023-04-09T05:44:40.912Z,58.68
2023-04-09T05:47:07.530Z,59.26
2023-04-09T05:49:34.052Z,58.55
2023-04-09T05:52:00.813Z,60.28
2023-04-09T05:54:27.511Z,58.58
2023-04-09T05:56:54.054Z,58.46
2023-04-09T05:59:20.693Z,58.89
2023-04-09T06:01:47.293Z,58.52
2023-04-09T06:04:14.098Z,57.51
2023-04-09T06:06:40.811Z,57.57
2023-04-09T06:09:07.376Z,57.45
2023-04-09T06:11:34.306Z,56.92
2023-04-09T06:14:00.845Z,56.75
2023-04-09T06:16:27.501Z,56.73
2023-04-09T06:18:54.653Z,56.22
2023-04-09T06:21:21.206Z,56.22
2023-04-09T06:23:47.802Z,56.00
2023-04-09T06:26:14.378Z,55.18
2023-04-09T06:28:41.003Z,55.73
2023-04-09T06:31:07.576Z,55.62
2023-04-09T06:33:34.296Z,55.13
2023-04-09T06:36:00.909Z,55.00
2023-04-09T06:38:27.546Z,54.92
2023-04-09T06:40:55.742Z,54.00
2023-04-09T06:43:22.277Z,53.74
2023-04-09T06:45:48.908Z,54.49
2023-04-09T06:48:15.512Z,54.02
2023-04-09T06:50:42.105Z,54.07
2023-04-09T06:53:08.718Z,53.91
2023-04-09T06:55:35.324Z,53.54
2023-04-09T06:58:02.821Z,53.70
2023-04-09T07:00:29.621Z,53.54
2023-04-09T07:02:56.874Z,53.29
2023-04-09T07:05:24.146Z,53.28
2023-04-09T07:07:50.790Z,52.97
2023-04-09T07:10:17.299Z,52.63
2023-04-09T07:12:43.914Z,51.96
2023-04-09T07:15:10.568Z,51.79
2023-04-09T07:17:37.172Z,51.64
2023-04-09T07:20:04.121Z,52.05
2023-04-09T07:22:33.640Z,50.29
2023-04-09T07:25:00.661Z,50.57
2023-04-09T07:27:27.771Z,50.57
2023-04-09T07:29:55.435Z,50.79
2023-04-09T07:32:22.004Z,49.53
2023-04-09T07:34:48.656Z,49.75
2023-04-09T07:37:15.457Z,48.76
2023-04-09T07:39:42.753Z,48.22
2023-04-09T07:42:09.488Z,49.78
2023-04-09T07:44:36.551Z,49.09
2023-04-09T07:47:04.001Z,48.79
2023-04-09T07:49:30.712Z,47.18
2023-04-09T07:51:57.787Z,48.57
2023-04-09T07:54:25.064Z,48.35
2023-04-09T07:56:51.664Z,48.07
2023-04-09T07:59:18.387Z,46.68
2023-04-09T08:01:45.290Z,45.17
2023-04-09T08:04:13.328Z,46.10
2023-04-09T08:06:40.023Z,46.34
2023-04-09T08:09:06.753Z,45.07
2023-04-09T08:11:33.388Z,46.48
2023-04-09T08:14:03.018Z,45.67
2023-04-09T08:16:30.558Z,44.61
2023-04-09T08:18:57.608Z,45.24
2023-04-09T08:21:24.325Z,46.21
2023-04-09T08:23:51.318Z,44.31
2023-04-09T08:26:18.006Z,44.00
2023-04-09T08:28:44.591Z,45.34
2023-04-09T08:31:11.158Z,44.20
2023-04-09T08:33:37.783Z,42.95
2023-04-09T08:36:08.147Z,43.10
2023-04-09T08:38:34.780Z,44.85
2023-04-09T08:41:01.332Z,43.71
2023-04-09T08:43:41.978Z,43.38
2023-04-09T08:46:16.820Z,42.17
2023-04-09T08:48:47.200Z,43.61
2023-04-09T08:51:14.956Z,42.13
2023-04-09T08:53:48.322Z,42.83
2023-04-09T08:56:15.807Z,43.49
2023-04-09T08:58:43.633Z,43.31
2023-04-09T09:01:20.387Z,41.07
2023-04-09T09:04:06.654Z,41.63
2023-04-09T09:06:37.348Z,42.62
2023-04-09T09:09:11.334Z,40.60
2023-04-09T09:11:42.115Z,41.33
2023-04-09T09:14:09.628Z,41.88
2023-04-09T09:16:40.343Z,42.43
2023-04-09T09:19:07.232Z,41.68
2023-04-09T09:21:34.362Z,41.18
2023-04-09T09:24:00.992Z,42.59
2023-04-09T09:26:28.903Z,42.04
2023-04-09T09:28:56.520Z,40.59
2023-04-09T09:31:23.547Z,39.80
2023-04-09T09:33:51.126Z,39.27
2023-04-09T09:36:33.697Z,40.64
2023-04-09T09:39:03.824Z,40.31
2023-04-09T09:41:30.587Z,40.25
2023-04-09T09:43:57.238Z,39.81
2023-04-09T09:46:24.926Z,41.25
2023-04-09T09:48:51.853Z,41.17
2023-04-09T09:51:19.675Z,41.01
2023-04-09T09:53:49.570Z,40.21
2023-04-09T09:56:21.901Z,40.95
2023-04-09T09:59:07.394Z,40.46
2023-04-09T10:01:35.603Z,39.87
2023-04-09T10:04:03.222Z,39.46
2023-04-09T10:06:31.004Z,39.46
2023-04-09T10:08:58.349Z,40.13
2023-04-09T10:11:25.201Z,39.94
2023-04-09T10:13:56.651Z,40.66
2023-04-09T10:16:24.023Z,38.91
2023-04-09T10:18:51.118Z,39.67
2023-04-09T10:21:27.331Z,39.40
2023-04-09T10:23:54.127Z,39.38
2023-04-09T10:26:20.835Z,39.60
2023-04-09T10:28:47.662Z,36.54
2023-04-09T10:31:14.278Z,38.72
2023-04-09T10:33:43.619Z,34.88
2023-04-09T10:36:12.301Z,34.46
2023-04-09T10:38:41.079Z,35.65
2023-04-09T10:41:09.749Z,36.83
2023-04-09T10:43:36.850Z,35.06
2023-04-09T10:46:04.829Z,33.82
2023-04-09T10:48:35.050Z,36.30
2023-04-09T10:51:04.450Z,34.94
2023-04-09T10:53:32.278Z,37.02
2023-04-09T10:55:58.814Z,34.56
2023-04-09T10:58:25.399Z,37.35
2023-04-09T11:00:52.036Z,36.52
2023-04-09T11:03:24.683Z,37.81
2023-04-09T11:05:52.747Z,36.60
2023-04-09T11:08:19.434Z,37.08
2023-04-09T11:10:48.661Z,37.26
2023-04-09T11:13:18.239Z,37.72
2023-04-09T11:15:45.778Z,37.54
2023-04-09T11:18:16.155Z,37.69
2023-04-09T11:20:43.124Z,37.48
2023-04-09T11:23:10.691Z,37.87
2023-04-09T11:25:37.210Z,36.70
2023-04-09T11:28:05.155Z,36.24
2023-04-09T11:30:31.924Z,35.27
2023-04-09T11:32:58.528Z,37.16
2023-04-09T11:35:25.610Z,38.14
2023-04-09T11:37:52.538Z,37.53
2023-04-09T11:40:20.336Z,37.79
2023-04-09T11:42:48.941Z,37.89
2023-04-09T11:45:16.275Z,38.03
2023-04-09T11:47:43.487Z,37.17
2023-04-09T11:50:10.854Z,38.19
2023-04-09T11:52:37.888Z,38.02
2023-04-09T11:55:08.280Z,37.93
2023-04-09T11:57:47.312Z,37.80
2023-04-09T12:00:15.015Z,38.13
2023-04-09T12:02:43.034Z,38.37
2023-04-09T12:05:10.869Z,38.25
2023-04-09T12:07:38.644Z,38.00
2023-04-09T12:10:07.074Z,38.31
2023-04-09T12:12:40.067Z,36.63
2023-04-09T12:15:20.153Z,37.51
2023-04-09T12:17:47.514Z,38.07
2023-04-09T12:20:14.067Z,37.56
2023-04-09T12:22:41.404Z,37.28
2023-04-09T12:25:08.736Z,37.90
2023-04-09T12:27:35.340Z,37.24
2023-04-09T12:30:01.901Z,37.96
2023-04-09T12:32:28.807Z,37.74
2023-04-09T12:34:55.745Z,37.75
2023-04-09T12:37:22.762Z,37.97
2023-04-09T12:39:49.437Z,36.68
2023-04-09T12:42:16.227Z,36.82
2023-04-09T12:44:42.794Z,36.68
2023-04-09T12:47:09.387Z,36.49
2023-04-09T12:49:35.934Z,36.73
2023-04-09T12:52:02.550Z,37.12
2023-04-09T12:54:29.167Z,37.15
2023-04-09T12:56:55.947Z,37.02
2023-04-09T12:59:22.490Z,37.42
2023-04-09T13:01:49.088Z,34.08
2023-04-09T13:04:16.598Z,36.73
2023-04-09T13:06:43.261Z,36.10
2023-04-09T13:09:09.789Z,37.80
2023-04-09T13:11:36.359Z,35.98
2023-04-09T13:14:02.943Z,36.98
2023-04-09T13:16:29.528Z,35.88
2023-04-09T13:18:56.079Z,37.49
2023-04-09T13:21:22.712Z,36.37
2023-04-09T13:23:49.336Z,37.46
2023-04-09T13:26:16.368Z,37.57
2023-04-09T13:28:42.990Z,36.82
2023-04-09T13:31:09.626Z,37.32
2023-04-09T13:33:36.223Z,37.10
2023-04-09T13:36:02.848Z,37.25
2023-04-09T13:38:29.428Z,37.43
2023-04-09T13:40:56.061Z,37.25
2023-04-09T13:43:27.910Z,37.24
2023-04-09T13:45:54.778Z,37.40
2023-04-09T13:48:21.985Z,37.12
2023-04-09T13:50:48.526Z,37.36
2023-04-09T13:53:15.288Z,37.67
2023-04-09T13:55:41.885Z,37.31
2023-04-09T13:58:08.496Z,37.72
2023-04-09T14:00:36.084Z,37.22
2023-04-09T14:03:03.548Z,37.44
2023-04-09T14:05:30.599Z,38.09
2023-04-09T14:07:57.166Z,38.97
2023-04-09T14:10:23.783Z,39.71
2023-04-09T14:12:50.709Z,41.61
2023-04-09T14:15:17.322Z,41.99
2023-04-09T14:17:44.338Z,42.75
2023-04-09T14:20:10.939Z,40.55
2023-04-09T14:22:37.523Z,40.99
2023-04-09T14:25:04.327Z,43.70
2023-04-09T14:27:31.074Z,42.31
2023-04-09T14:29:57.715Z,42.39
2023-04-09T14:32:24.350Z,41.19
2023-04-09T14:34:50.930Z,40.32
2023-04-09T14:37:17.536Z,42.85
2023-04-09T14:39:44.075Z,40.75
2023-04-09T14:42:10.939Z,40.77
2023-04-09T14:44:37.542Z,43.46
2023-04-09T14:47:04.207Z,41.82
2023-04-09T14:49:30.909Z,41.01
2023-04-09T14:51:57.776Z,41.30
2023-04-09T14:54:24.412Z,41.09
2023-04-09T14:56:51.191Z,41.06
2023-04-09T14:59:17.788Z,41.61
2023-04-09T15:01:44.445Z,41.42
2023-04-09T15:04:11.394Z,41.47
2023-04-09T15:06:38.223Z,41.61
2023-04-09T15:09:05.046Z,41.53
2023-04-09T15:11:31.603Z,41.75
2023-04-09T15:13:58.143Z,41.63
2023-04-09T15:16:26.008Z,42.50
2023-04-09T15:18:55.693Z,41.92
2023-04-09T15:21:22.680Z,41.92
2023-04-09T15:23:52.482Z,42.15
2023-04-09T15:26:19.225Z,42.14
2023-04-09T15:28:46.293Z,42.15
2023-04-09T15:31:13.260Z,42.10
2023-04-09T15:33:42.277Z,41.73
2023-04-09T15:36:09.192Z,41.71
2023-04-09T15:38:36.118Z,42.07
2023-04-09T15:41:02.674Z,42.19
2023-04-09T15:43:29.215Z,42.21
2023-04-09T15:45:56.205Z,42.07
2023-04-09T15:48:22.852Z,42.47
2023-04-09T15:50:49.408Z,42.57
2023-04-09T15:53:16.014Z,42.64
2023-04-09T15:55:42.698Z,42.85
2023-04-09T15:58:09.338Z,42.84
2023-04-09T16:00:35.898Z,42.96
2023-04-09T16:03:02.540Z,43.42
2023-04-09T16:05:29.150Z,43.38
2023-04-09T16:07:58.290Z,43.31
2023-04-09T16:10:26.432Z,43.46
2023-04-09T16:12:52.977Z,43.50
2023-04-09T16:15:22.248Z,43.28
2023-04-09T16:17:48.869Z,43.58
2023-04-09T16:20:15.443Z,43.87
2023-04-09T16:22:42.014Z,43.77
2023-04-09T16:25:08.890Z,43.99
2023-04-09T16:27:35.480Z,43.88
2023-04-09T16:30:02.209Z,44.09
2023-04-09T16:32:30.160Z,44.04
2023-04-09T16:35:00.535Z,44.14
2023-04-09T16:37:27.999Z,44.03
2023-04-09T16:39:54.646Z,43.56
2023-04-09T16:42:21.655Z,43.81
2023-04-09T16:44:48.292Z,43.58
2023-04-09T16:47:14.895Z,44.33
2023-04-09T16:49:41.601Z,43.69
2023-04-09T16:52:08.294Z,43.86
2023-04-09T16:54:34.867Z,43.97
2023-04-09T16:57:01.917Z,43.61
2023-04-09T16:59:28.603Z,43.73
2023-04-09T17:01:55.421Z,44.04
2023-04-09T17:04:22.285Z,43.94
2023-04-09T17:06:48.948Z,43.96
2023-04-09T17:09:16.384Z,43.99
2023-04-09T17:11:44.809Z,44.11
2023-04-09T17:14:11.602Z,44.31
2023-04-09T17:16:38.206Z,44.39
2023-04-09T17:19:04.947Z,44.39
2023-04-09T17:21:31.547Z,44.55
2023-04-09T17:23:58.236Z,44.63
2023-04-09T17:26:24.836Z,44.63
2023-04-09T17:28:52.548Z,44.68
2023-04-09T17:31:19.516Z,44.87
2023-04-09T17:33:49.347Z,45.00
2023-04-09T17:36:19.727Z,44.56
2023-04-09T17:38:47.313Z,44.74
2023-04-09T17:41:14.102Z,44.61
2023-04-09T17:43:40.960Z,45.33
2023-04-09T17:46:08.811Z,45.00
2023-04-09T17:48:38.363Z,45.56
2023-04-09T17:51:05.672Z,45.98
2023-04-09T17:53:32.402Z,44.89
2023-04-09T17:55:59.166Z,44.87
2023-04-09T17:58:26.095Z,45.07
2023-04-09T18:00:53.889Z,45.29
2023-04-09T18:03:21.030Z,45.89
2023-04-09T18:05:48.094Z,45.41
2023-04-09T18:08:14.761Z,45.42
2023-04-09T18:10:41.516Z,45.32
2023-04-09T18:13:08.688Z,45.47
2023-04-09T18:15:35.568Z,45.32
2023-04-09T18:18:02.202Z,45.44
2023-04-09T18:20:28.970Z,45.53
2023-04-09T18:22:55.831Z,45.91
2023-04-09T18:25:23.324Z,46.99
2023-04-09T18:27:50.127Z,47.39
2023-04-09T18:30:16.728Z,46.11
2023-04-09T18:32:44.023Z,45.78
2023-04-09T18:35:11.121Z,46.04
2023-04-09T18:37:38.270Z,45.79
2023-04-09T18:40:06.169Z,45.77
2023-04-09T18:42:32.790Z,46.41
2023-04-09T18:44:59.436Z,46.26
2023-04-09T18:47:26.160Z,46.10
2023-04-09T18:49:52.874Z,46.11
2023-04-09T18:52:19.534Z,45.76
2023-04-09T18:54:46.431Z,46.10
2023-04-09T18:57:12.970Z,46.53
2023-04-09T18:59:40.369Z,46.26
2023-04-09T19:02:07.215Z,47.08
2023-04-09T19:04:39.693Z,46.48
2023-04-09T19:07:06.893Z,46.94
2023-04-09T19:09:33.719Z,46.46
2023-04-09T19:12:01.573Z,46.38
2023-04-09T19:14:28.241Z,46.48
2023-04-09T19:16:54.885Z,46.32
2023-04-09T19:19:21.801Z,46.22
2023-04-09T19:21:51.383Z,46.15
2023-04-09T19:24:17.974Z,46.05
2023-04-09T19:26:44.534Z,46.09
2023-04-09T19:29:11.321Z,46.27
2023-04-09T19:31:38.013Z,46.13
2023-04-09T19:34:06.231Z,46.02
2023-04-09T19:36:34.045Z,46.23
2023-04-09T19:39:00.784Z,46.10
2023-04-09T19:41:27.513Z,46.33
2023-04-09T19:43:54.060Z,46.31
2023-04-09T19:46:20.755Z,46.47
2023-04-09T19:48:47.615Z,46.40
2023-04-09T19:51:17.878Z,46.42
2023-04-09T19:53:46.118Z,46.58
2023-04-09T19:56:13.867Z,46.35
2023-04-09T19:58:41.306Z,46.35
2023-04-09T20:01:08.171Z,46.25
2023-04-09T20:03:34.850Z,46.64
2023-04-09T20:06:06.454Z,46.28
2023-04-09T20:08:32.991Z,46.25
2023-04-09T20:10:59.572Z,46.24
2023-04-09T20:13:26.203Z,46.35
2023-04-09T20:15:52.909Z,46.41
2023-04-09T20:18:19.454Z,46.51
2023-04-09T20:20:46.123Z,46.34
2023-04-09T20:23:12.657Z,46.40
2023-04-09T20:25:39.237Z,46.38
2023-04-09T20:28:06.458Z,46.60
2023-04-09T20:30:33.109Z,46.47
2023-04-09T20:32:59.777Z,46.58
2023-04-09T20:35:26.431Z,46.41
2023-04-09T20:37:54.762Z,46.53
2023-04-09T20:40:21.932Z,46.36
2023-04-09T20:42:48.721Z,46.89
2023-04-09T20:45:15.869Z,46.94
2023-04-09T20:47:42.504Z,46.60
2023-04-09T20:50:09.550Z,46.94
2023-04-09T20:52:36.900Z,46.74
2023-04-09T20:55:03.563Z,46.54
2023-04-09T20:57:30.441Z,47.71
2023-04-09T20:59:57.261Z,47.52
2023-04-09T21:02:24.019Z,47.55
2023-04-09T21:04:50.737Z,46.96
2023-04-09T21:07:17.354Z,47.80
2023-04-09T21:09:44.004Z,48.22
2023-04-09T21:12:10.866Z,49.83
2023-04-09T21:14:37.465Z,47.24
2023-04-09T21:17:04.161Z,47.06
2023-04-09T21:19:30.881Z,47.23
2023-04-09T21:21:57.520Z,47.03
2023-04-09T21:24:24.241Z,47.11
2023-04-09T21:26:52.294Z,47.21
2023-04-09T21:29:19.902Z,47.64
2023-04-09T21:31:46.517Z,47.47
2023-04-09T21:34:13.056Z,47.35
2023-04-09T21:36:39.847Z,47.57
2023-04-09T21:39:07.034Z,47.40
2023-04-09T21:41:33.595Z,47.47
2023-04-09T21:44:07.829Z,47.58
2023-04-09T21:46:35.985Z,47.83
2023-04-09T21:49:03.171Z,47.57
2023-04-09T21:51:29.911Z,47.98
2023-04-09T21:54:06.861Z,47.82
2023-04-09T21:56:33.512Z,47.63
2023-04-09T21:59:01.205Z,47.56
2023-04-09T22:01:30.429Z,47.66
2023-04-09T22:03:57.789Z,47.42
2023-04-09T22:06:24.462Z,47.41
2023-04-09T22:08:56.133Z,47.50
2023-04-09T22:11:28.115Z,48.32
2023-04-09T22:13:58.256Z,47.53
2023-04-09T22:16:26.354Z,47.80
2023-04-09T22:18:54.054Z,47.99
2023-04-09T22:21:21.613Z,48.09
2023-04-09T22:23:48.252Z,48.15
2023-04-09T22:26:14.790Z,47.91
2023-04-09T22:28:41.355Z,47.88
2023-04-09T22:31:08.097Z,47.80
2023-04-09T22:33:34.676Z,47.79
2023-04-09T22:36:01.370Z,47.78
2023-04-09T22:38:28.127Z,47.70
2023-04-09T22:40:54.747Z,47.76
2023-04-09T22:43:21.383Z,47.66
2023-04-09T22:45:52.317Z,48.02
2023-04-09T22:48:19.488Z,47.72
2023-04-09T22:50:46.532Z,47.81
2023-04-09T22:53:18.436Z,47.75
2023-04-09T22:55:46.814Z,47.86
2023-04-09T22:58:13.535Z,47.81
2023-04-09T23:00:40.500Z,47.67
2023-04-09T23:03:07.204Z,47.66
2023-04-09T23:05:34.020Z,47.71
2023-04-09T23:08:00.885Z,47.67
2023-04-09T23:10:27.424Z,47.75
2023-04-09T23:12:53.986Z,47.72
2023-04-09T23:15:20.700Z,47.70
2023-04-09T23:17:47.394Z,47.77
2023-04-09T23:20:15.053Z,47.58
2023-04-09T23:22:42.168Z,47.77
2023-04-09T23:25:09.008Z,47.54
2023-04-09T23:27:35.831Z,47.59
2023-04-09T23:30:02.390Z,47.65
2023-04-09T23:32:30.165Z,47.62
2023-04-09T23:34:58.908Z,47.45
2023-04-09T23:37:25.877Z,47.49
2023-04-09T23:39:52.532Z,47.59
2023-04-09T23:42:19.089Z,47.46
2023-04-09T23:44:45.667Z,47.38
2023-04-09T23:47:13.830Z,47.43
2023-04-09T23:49:40.849Z,47.47
2023-04-09T23:52:07.407Z,47.43
2023-04-09T23:54:35.289Z,47.36
2023-04-09T23:57:01.847Z,47.40
2023-04-09T23:59:31.123Z,46.90
